sensor_id;sensor_type;location;lat;lon;timestamp;temperature;humidity
16578;DHT22;8401;52.528;13.340;2023-07-20T00:02:24;17.90;99.90
16578;DHT22;8401;52.528;13.340;2023-07-20T00:04:49;17.80;99.90
16578;DHT22;8401;52.528;13.340;2023-07-20T00:07:15;17.60;99.90
16578;DHT22;8401;52.528;13.340;2023-07-20T00:09:41;17.60;99.90
16578;DHT22;8401;52.528;13.340;2023-07-20T00:12:07;17.80;99.90
16578;DHT22;8401;52.528;13.340;2023-07-20T00:14:33;17.60;99.90
16578;DHT22;8401;52.528;13.340;2023-07-20T00:16:58;17.50;99.90
16578;DHT22;8401;52.528;13.340;2023-07-20T00:19:27;17.60;99.90
16578;DHT22;8401;52.528;13.340;2023-07-20T00:21:54;17.60;99.90
16578;DHT22;8401;52.528;13.340;2023-07-20T00:24:20;17.60;99.90
16578;DHT22;8401;52.528;13.340;2023-07-20T00:26:46;17.50;99.90
16578;DHT22;8401;52.528;13.340;2023-07-20T00:29:12;17.60;99.90
16578;DHT22;8401;52.528;13.340;2023-07-20T00:31:38;17.60;99.90
16578;DHT22;8401;52.528;13.340;2023-07-20T00:34:04;17.80;99.90
16578;DHT22;8401;52.528;13.340;2023-07-20T00:36:30;17.80;99.90
16578;DHT22;8401;52.528;13.340;2023-07-20T00:38:55;17.80;99.90
16578;DHT22;8401;52.528;13.340;2023-07-20T00:41:22;17.60;99.90
16578;DHT22;8401;52.528;13.340;2023-07-20T00:43:47;17.60;99.90
16578;DHT22;8401;52.528;13.340;2023-07-20T00:46:13;17.50;99.90
16578;DHT22;8401;52.528;13.340;2023-07-20T00:48:40;17.40;99.90
16578;DHT22;8401;52.528;13.340;2023-07-20T00:51:06;17.60;99.90
16578;DHT22;8401;52.528;13.340;2023-07-20T00:53:32;17.50;99.90
16578;DHT22;8401;52.528;13.340;2023-07-20T00:55:58;17.40;99.90
16578;DHT22;8401;52.528;13.340;2023-07-20T00:58:24;17.30;99.90
16578;DHT22;8401;52.528;13.340;2023-07-20T01:00:50;17.40;99.90
16578;DHT22;8401;52.528;13.340;2023-07-20T01:03:16;17.30;99.90
16578;DHT22;8401;52.528;13.340;2023-07-20T01:05:54;17.10;99.90
16578;DHT22;8401;52.528;13.340;2023-07-20T01:09:14;17.00;99.90
16578;DHT22;8401;52.528;13.340;2023-07-20T01:11:22;17.10;99.90
16578;DHT22;8401;52.528;13.340;2023-07-20T01:13:50;17.20;99.90
16578;DHT22;8401;52.528;13.340;2023-07-20T01:16:16;17.20;99.90
16578;DHT22;8401;52.528;13.340;2023-07-20T01:18:41;17.10;99.90
16578;DHT22;8401;52.528;13.340;2023-07-20T01:21:11;17.20;99.90
16578;DHT22;8401;52.528;13.340;2023-07-20T01:24:05;17.10;99.90
16578;DHT22;8401;52.528;13.340;2023-07-20T01:32:16;17.00;99.90
16578;DHT22;8401;52.528;13.340;2023-07-20T01:34:44;16.90;99.90
16578;DHT22;8401;52.528;13.340;2023-07-20T01:37:10;16.90;99.90
16578;DHT22;8401;52.528;13.340;2023-07-20T01:39:37;16.80;99.90
16578;DHT22;8401;52.528;13.340;2023-07-20T01:42:04;16.80;99.90
16578;DHT22;8401;52.528;13.340;2023-07-20T01:44:29;16.70;99.90
16578;DHT22;8401;52.528;13.340;2023-07-20T01:46:55;16.60;99.90
16578;DHT22;8401;52.528;13.340;2023-07-20T01:49:21;16.60;99.90
16578;DHT22;8401;52.528;13.340;2023-07-20T01:51:46;16.60;99.90
16578;DHT22;8401;52.528;13.340;2023-07-20T01:54:12;16.60;99.90
16578;DHT22;8401;52.528;13.340;2023-07-20T01:56:37;16.70;99.90
16578;DHT22;8401;52.528;13.340;2023-07-20T01:59:03;16.80;99.90
16578;DHT22;8401;52.528;13.340;2023-07-20T02:01:29;16.70;99.90
16578;DHT22;8401;52.528;13.340;2023-07-20T02:03:54;16.90;99.90
16578;DHT22;8401;52.528;13.340;2023-07-20T02:06:20;17.00;99.90
16578;DHT22;8401;52.528;13.340;2023-07-20T02:08:45;17.00;99.90
16578;DHT22;8401;52.528;13.340;2023-07-20T02:11:11;17.00;99.90
16578;DHT22;8401;52.528;13.340;2023-07-20T02:13:37;16.90;99.90
16578;DHT22;8401;52.528;13.340;2023-07-20T02:16:02;16.80;99.90
16578;DHT22;8401;52.528;13.340;2023-07-20T02:18:28;16.90;99.90
16578;DHT22;8401;52.528;13.340;2023-07-20T02:20:54;17.00;99.90
16578;DHT22;8401;52.528;13.340;2023-07-20T02:23:19;16.80;99.90
16578;DHT22;8401;52.528;13.340;2023-07-20T02:25:45;16.80;99.90
16578;DHT22;8401;52.528;13.340;2023-07-20T02:28:13;17.10;99.90
16578;DHT22;8401;52.528;13.340;2023-07-20T02:30:39;17.00;99.90
16578;DHT22;8401;52.528;13.340;2023-07-20T02:33:05;16.80;99.90
16578;DHT22;8401;52.528;13.340;2023-07-20T02:35:32;16.80;99.90
16578;DHT22;8401;52.528;13.340;2023-07-20T02:37:57;16.80;99.90
16578;DHT22;8401;52.528;13.340;2023-07-20T02:40:23;17.00;99.90
16578;DHT22;8401;52.528;13.340;2023-07-20T02:42:49;16.90;99.90
16578;DHT22;8401;52.528;13.340;2023-07-20T02:45:15;16.70;99.90
16578;DHT22;8401;52.528;13.340;2023-07-20T02:47:41;16.70;99.90
16578;DHT22;8401;52.528;13.340;2023-07-20T02:50:08;16.90;99.90
16578;DHT22;8401;52.528;13.340;2023-07-20T02:52:34;16.70;99.90
16578;DHT22;8401;52.528;13.340;2023-07-20T02:54:59;16.60;99.90
16578;DHT22;8401;52.528;13.340;2023-07-20T02:57:25;16.40;99.90
16578;DHT22;8401;52.528;13.340;2023-07-20T02:59:51;16.50;99.90
16578;DHT22;8401;52.528;13.340;2023-07-20T03:02:16;16.40;99.90
16578;DHT22;8401;52.528;13.340;2023-07-20T03:04:42;16.20;99.90
16578;DHT22;8401;52.528;13.340;2023-07-20T03:07:07;16.20;99.90
16578;DHT22;8401;52.528;13.340;2023-07-20T03:09:33;16.20;99.90
16578;DHT22;8401;52.528;13.340;2023-07-20T03:11:59;16.30;99.90
16578;DHT22;8401;52.528;13.340;2023-07-20T03:14:26;16.40;99.90
16578;DHT22;8401;52.528;13.340;2023-07-20T03:16:52;16.30;99.90
16578;DHT22;8401;52.528;13.340;2023-07-20T03:19:17;16.30;99.90
16578;DHT22;8401;52.528;13.340;2023-07-20T03:21:43;16.40;99.90
16578;DHT22;8401;52.528;13.340;2023-07-20T03:24:09;16.40;99.90
16578;DHT22;8401;52.528;13.340;2023-07-20T03:26:35;16.50;99.90
16578;DHT22;8401;52.528;13.340;2023-07-20T03:29:01;16.60;99.90
16578;DHT22;8401;52.528;13.340;2023-07-20T03:31:26;16.70;99.90
16578;DHT22;8401;52.528;13.340;2023-07-20T03:33:52;16.90;99.90
16578;DHT22;8401;52.528;13.340;2023-07-20T03:36:18;16.80;99.90
16578;DHT22;8401;52.528;13.340;2023-07-20T03:38:43;16.70;99.90
16578;DHT22;8401;52.528;13.340;2023-07-20T03:41:09;16.60;99.90
16578;DHT22;8401;52.528;13.340;2023-07-20T03:43:35;16.70;99.90
16578;DHT22;8401;52.528;13.340;2023-07-20T03:46:00;16.60;99.90
16578;DHT22;8401;52.528;13.340;2023-07-20T03:48:26;16.60;99.90
16578;DHT22;8401;52.528;13.340;2023-07-20T03:50:53;16.40;99.90
16578;DHT22;8401;52.528;13.340;2023-07-20T03:53:19;16.40;99.90
16578;DHT22;8401;52.528;13.340;2023-07-20T03:55:54;16.50;99.90
16578;DHT22;8401;52.528;13.340;2023-07-20T03:58:20;16.50;99.90
16578;DHT22;8401;52.528;13.340;2023-07-20T04:00:51;16.60;99.90
16578;DHT22;8401;52.528;13.340;2023-07-20T04:03:17;16.80;99.90
16578;DHT22;8401;52.528;13.340;2023-07-20T04:05:44;16.70;99.90
16578;DHT22;8401;52.528;13.340;2023-07-20T04:08:10;16.80;99.90
16578;DHT22;8401;52.528;13.340;2023-07-20T04:10:39;16.60;99.90
16578;DHT22;8401;52.528;13.340;2023-07-20T04:13:05;16.50;99.90
16578;DHT22;8401;52.528;13.340;2023-07-20T04:15:31;16.40;99.90
16578;DHT22;8401;52.528;13.340;2023-07-20T04:17:57;16.50;99.90
16578;DHT22;8401;52.528;13.340;2023-07-20T04:20:23;16.40;99.90
16578;DHT22;8401;52.528;13.340;2023-07-20T04:22:49;16.50;99.90
16578;DHT22;8401;52.528;13.340;2023-07-20T04:25:16;16.30;99.90
16578;DHT22;8401;52.528;13.340;2023-07-20T04:27:41;16.40;99.90
16578;DHT22;8401;52.528;13.340;2023-07-20T04:30:08;16.50;99.90
16578;DHT22;8401;52.528;13.340;2023-07-20T04:32:34;16.50;99.90
16578;DHT22;8401;52.528;13.340;2023-07-20T04:35:00;16.50;99.90
16578;DHT22;8401;52.528;13.340;2023-07-20T04:37:25;16.50;99.90
16578;DHT22;8401;52.528;13.340;2023-07-20T04:39:51;16.60;99.90
16578;DHT22;8401;52.528;13.340;2023-07-20T04:42:17;16.80;99.90
16578;DHT22;8401;52.528;13.340;2023-07-20T04:44:43;16.70;99.90
16578;DHT22;8401;52.528;13.340;2023-07-20T04:47:09;16.80;99.90
16578;DHT22;8401;52.528;13.340;2023-07-20T04:49:34;16.90;99.90
16578;DHT22;8401;52.528;13.340;2023-07-20T04:52:00;17.00;99.90
16578;DHT22;8401;52.528;13.340;2023-07-20T04:54:25;16.90;99.90
16578;DHT22;8401;52.528;13.340;2023-07-20T04:56:53;16.90;99.90
16578;DHT22;8401;52.528;13.340;2023-07-20T04:59:18;17.00;99.90
16578;DHT22;8401;52.528;13.340;2023-07-20T05:01:44;17.00;99.90
16578;DHT22;8401;52.528;13.340;2023-07-20T05:04:18;16.90;99.90
16578;DHT22;8401;52.528;13.340;2023-07-20T05:06:44;16.80;99.90
16578;DHT22;8401;52.528;13.340;2023-07-20T05:09:10;16.80;99.90
16578;DHT22;8401;52.528;13.340;2023-07-20T05:11:35;16.80;99.90
16578;DHT22;8401;52.528;13.340;2023-07-20T05:14:01;16.90;99.90
16578;DHT22;8401;52.528;13.340;2023-07-20T05:16:26;16.80;99.90
16578;DHT22;8401;52.528;13.340;2023-07-20T05:18:52;16.90;99.90
16578;DHT22;8401;52.528;13.340;2023-07-20T05:21:18;16.90;99.90
16578;DHT22;8401;52.528;13.340;2023-07-20T05:23:43;17.00;99.90
16578;DHT22;8401;52.528;13.340;2023-07-20T05:26:10;16.90;99.90
16578;DHT22;8401;52.528;13.340;2023-07-20T05:28:35;16.90;99.90
16578;DHT22;8401;52.528;13.340;2023-07-20T05:31:03;16.70;99.90
16578;DHT22;8401;52.528;13.340;2023-07-20T05:33:29;16.60;99.90
16578;DHT22;8401;52.528;13.340;2023-07-20T05:35:54;16.70;99.90
16578;DHT22;8401;52.528;13.340;2023-07-20T05:38:20;16.90;99.90
16578;DHT22;8401;52.528;13.340;2023-07-20T05:40:45;17.10;99.90
16578;DHT22;8401;52.528;13.340;2023-07-20T05:43:12;17.20;99.90
16578;DHT22;8401;52.528;13.340;2023-07-20T05:45:41;17.30;99.90
16578;DHT22;8401;52.528;13.340;2023-07-20T05:48:08;17.30;99.90
16578;DHT22;8401;52.528;13.340;2023-07-20T05:50:37;17.30;99.90
16578;DHT22;8401;52.528;13.340;2023-07-20T05:53:02;17.00;99.90
16578;DHT22;8401;52.528;13.340;2023-07-20T05:55:28;17.20;99.90
16578;DHT22;8401;52.528;13.340;2023-07-20T05:57:53;17.30;99.90
16578;DHT22;8401;52.528;13.340;2023-07-20T06:00:21;17.50;99.90
16578;DHT22;8401;52.528;13.340;2023-07-20T06:02:52;17.40;99.90
16578;DHT22;8401;52.528;13.340;2023-07-20T06:05:18;17.40;99.90
16578;DHT22;8401;52.528;13.340;2023-07-20T06:07:45;17.20;99.90
16578;DHT22;8401;52.528;13.340;2023-07-20T06:10:11;17.10;99.90
16578;DHT22;8401;52.528;13.340;2023-07-20T06:12:36;17.20;99.90
16578;DHT22;8401;52.528;13.340;2023-07-20T06:15:04;17.30;99.90
16578;DHT22;8401;52.528;13.340;2023-07-20T06:17:29;17.50;99.90
16578;DHT22;8401;52.528;13.340;2023-07-20T06:19:55;17.70;99.90
16578;DHT22;8401;52.528;13.340;2023-07-20T06:22:21;17.60;99.90
16578;DHT22;8401;52.528;13.340;2023-07-20T06:24:46;17.40;99.90
16578;DHT22;8401;52.528;13.340;2023-07-20T06:27:12;17.40;99.90
16578;DHT22;8401;52.528;13.340;2023-07-20T06:29:38;17.40;99.90
16578;DHT22;8401;52.528;13.340;2023-07-20T06:32:04;17.40;99.90
16578;DHT22;8401;52.528;13.340;2023-07-20T06:34:30;17.70;99.90
16578;DHT22;8401;52.528;13.340;2023-07-20T06:36:56;17.90;99.90
16578;DHT22;8401;52.528;13.340;2023-07-20T06:39:22;18.10;99.90
16578;DHT22;8401;52.528;13.340;2023-07-20T06:41:48;17.90;99.90
16578;DHT22;8401;52.528;13.340;2023-07-20T06:44:13;17.70;99.90
16578;DHT22;8401;52.528;13.340;2023-07-20T06:46:39;17.70;99.90
16578;DHT22;8401;52.528;13.340;2023-07-20T06:49:06;17.70;99.90
16578;DHT22;8401;52.528;13.340;2023-07-20T06:51:33;17.80;99.90
16578;DHT22;8401;52.528;13.340;2023-07-20T06:53:58;18.20;99.90
16578;DHT22;8401;52.528;13.340;2023-07-20T06:56:24;18.10;99.90
16578;DHT22;8401;52.528;13.340;2023-07-20T06:58:50;18.10;99.90
16578;DHT22;8401;52.528;13.340;2023-07-20T07:01:15;17.90;99.90
16578;DHT22;8401;52.528;13.340;2023-07-20T07:03:42;17.80;99.90
16578;DHT22;8401;52.528;13.340;2023-07-20T07:06:09;18.10;99.90
16578;DHT22;8401;52.528;13.340;2023-07-20T07:08:35;18.60;99.90
16578;DHT22;8401;52.528;13.340;2023-07-20T07:11:01;18.60;99.90
16578;DHT22;8401;52.528;13.340;2023-07-20T07:13:27;19.30;99.90
16578;DHT22;8401;52.528;13.340;2023-07-20T07:15:53;19.60;99.90
16578;DHT22;8401;52.528;13.340;2023-07-20T07:18:18;19.70;99.90
16578;DHT22;8401;52.528;13.340;2023-07-20T07:20:51;19.20;99.90
16578;DHT22;8401;52.528;13.340;2023-07-20T07:23:16;19.10;99.90
16578;DHT22;8401;52.528;13.340;2023-07-20T07:25:42;19.20;99.90
16578;DHT22;8401;52.528;13.340;2023-07-20T07:28:07;19.40;99.90
16578;DHT22;8401;52.528;13.340;2023-07-20T07:30:33;19.60;99.90
16578;DHT22;8401;52.528;13.340;2023-07-20T07:32:59;19.50;99.90
16578;DHT22;8401;52.528;13.340;2023-07-20T07:35:25;19.30;99.90
16578;DHT22;8401;52.528;13.340;2023-07-20T07:37:50;19.90;99.90
16578;DHT22;8401;52.528;13.340;2023-07-20T07:40:16;20.80;99.90
16578;DHT22;8401;52.528;13.340;2023-07-20T07:42:42;21.10;99.90
16578;DHT22;8401;52.528;13.340;2023-07-20T07:45:08;21.40;99.90
16578;DHT22;8401;52.528;13.340;2023-07-20T07:47:33;21.50;99.90
16578;DHT22;8401;52.528;13.340;2023-07-20T07:49:59;20.80;99.90
16578;DHT22;8401;52.528;13.340;2023-07-20T07:52:25;19.70;99.90
16578;DHT22;8401;52.528;13.340;2023-07-20T07:54:50;19.50;99.90
16578;DHT22;8401;52.528;13.340;2023-07-20T07:57:16;19.50;99.90
16578;DHT22;8401;52.528;13.340;2023-07-20T07:59:42;20.10;99.90
16578;DHT22;8401;52.528;13.340;2023-07-20T08:02:07;20.10;99.90
16578;DHT22;8401;52.528;13.340;2023-07-20T08:04:33;20.50;99.90
16578;DHT22;8401;52.528;13.340;2023-07-20T08:06:59;21.20;99.90
16578;DHT22;8401;52.528;13.340;2023-07-20T08:09:25;20.60;99.90
16578;DHT22;8401;52.528;13.340;2023-07-20T08:11:51;19.90;99.90
16578;DHT22;8401;52.528;13.340;2023-07-20T08:14:16;19.90;99.90
16578;DHT22;8401;52.528;13.340;2023-07-20T08:16:42;19.80;99.90
16578;DHT22;8401;52.528;13.340;2023-07-20T08:19:08;19.90;99.90
16578;DHT22;8401;52.528;13.340;2023-07-20T08:21:34;19.80;99.90
16578;DHT22;8401;52.528;13.340;2023-07-20T08:23:59;19.90;99.90
16578;DHT22;8401;52.528;13.340;2023-07-20T08:26:25;20.00;99.90
16578;DHT22;8401;52.528;13.340;2023-07-20T08:28:51;20.50;99.90
16578;DHT22;8401;52.528;13.340;2023-07-20T08:31:16;21.30;99.90
16578;DHT22;8401;52.528;13.340;2023-07-20T08:33:42;21.40;99.90
16578;DHT22;8401;52.528;13.340;2023-07-20T08:36:08;21.40;99.90
16578;DHT22;8401;52.528;13.340;2023-07-20T08:38:34;21.60;99.90
16578;DHT22;8401;52.528;13.340;2023-07-20T08:40:59;21.50;99.90
16578;DHT22;8401;52.528;13.340;2023-07-20T08:43:27;21.20;99.90
16578;DHT22;8401;52.528;13.340;2023-07-20T08:45:57;21.60;99.90
16578;DHT22;8401;52.528;13.340;2023-07-20T08:48:24;22.20;99.90
16578;DHT22;8401;52.528;13.340;2023-07-20T08:50:51;22.80;99.90
16578;DHT22;8401;52.528;13.340;2023-07-20T08:53:17;23.00;99.90
16578;DHT22;8401;52.528;13.340;2023-07-20T08:55:44;23.00;99.90
16578;DHT22;8401;52.528;13.340;2023-07-20T08:58:12;23.50;99.90
16578;DHT22;8401;52.528;13.340;2023-07-20T09:00:40;24.90;99.90
16578;DHT22;8401;52.528;13.340;2023-07-20T09:03:06;24.30;99.90
16578;DHT22;8401;52.528;13.340;2023-07-20T09:05:32;22.90;99.90
16578;DHT22;8401;52.528;13.340;2023-07-20T09:07:59;23.00;99.90
16578;DHT22;8401;52.528;13.340;2023-07-20T09:10:25;23.80;99.90
16578;DHT22;8401;52.528;13.340;2023-07-20T09:12:51;24.10;99.90
16578;DHT22;8401;52.528;13.340;2023-07-20T09:15:16;24.70;99.90
16578;DHT22;8401;52.528;13.340;2023-07-20T09:17:47;24.00;99.90
16578;DHT22;8401;52.528;13.340;2023-07-20T09:20:15;24.00;99.90
16578;DHT22;8401;52.528;13.340;2023-07-20T09:22:42;23.20;99.90
16578;DHT22;8401;52.528;13.340;2023-07-20T09:27:39;24.40;99.90
16578;DHT22;8401;52.528;13.340;2023-07-20T09:30:05;23.90;99.90
16578;DHT22;8401;52.528;13.340;2023-07-20T09:32:43;23.80;99.90
16578;DHT22;8401;52.528;13.340;2023-07-20T09:35:20;23.10;99.90
16578;DHT22;8401;52.528;13.340;2023-07-20T09:37:50;22.30;99.90
16578;DHT22;8401;52.528;13.340;2023-07-20T09:40:18;22.20;99.90
16578;DHT22;8401;52.528;13.340;2023-07-20T09:42:45;21.50;99.90
16578;DHT22;8401;52.528;13.340;2023-07-20T09:45:11;21.20;99.90
16578;DHT22;8401;52.528;13.340;2023-07-20T09:47:37;20.70;99.90
16578;DHT22;8401;52.528;13.340;2023-07-20T09:50:04;20.80;99.90
16578;DHT22;8401;52.528;13.340;2023-07-20T09:52:30;20.50;99.90
16578;DHT22;8401;52.528;13.340;2023-07-20T09:54:57;20.40;99.90
16578;DHT22;8401;52.528;13.340;2023-07-20T09:57:23;20.50;99.90
16578;DHT22;8401;52.528;13.340;2023-07-20T09:59:49;20.30;99.90
16578;DHT22;8401;52.528;13.340;2023-07-20T10:02:33;19.90;99.90
16578;DHT22;8401;52.528;13.340;2023-07-20T10:05:03;19.60;99.90
16578;DHT22;8401;52.528;13.340;2023-07-20T10:07:34;19.60;99.90
16578;DHT22;8401;52.528;13.340;2023-07-20T10:10:02;19.50;99.90
16578;DHT22;8401;52.528;13.340;2023-07-20T10:12:29;19.50;99.90
16578;DHT22;8401;52.528;13.340;2023-07-20T10:17:57;19.60;99.90
16578;DHT22;8401;52.528;13.340;2023-07-20T10:20:25;19.60;99.90
16578;DHT22;8401;52.528;13.340;2023-07-20T10:22:53;19.60;99.90
16578;DHT22;8401;52.528;13.340;2023-07-20T10:25:20;19.70;99.90
16578;DHT22;8401;52.528;13.340;2023-07-20T10:27:48;19.70;99.90
16578;DHT22;8401;52.528;13.340;2023-07-20T10:30:14;19.80;99.90
16578;DHT22;8401;52.528;13.340;2023-07-20T10:32:41;19.90;99.90
16578;DHT22;8401;52.528;13.340;2023-07-20T10:35:15;19.80;99.90
16578;DHT22;8401;52.528;13.340;2023-07-20T10:40:33;19.50;99.90
16578;DHT22;8401;52.528;13.340;2023-07-20T10:43:03;19.50;99.90
16578;DHT22;8401;52.528;13.340;2023-07-20T10:48:33;19.70;99.90
16578;DHT22;8401;52.528;13.340;2023-07-20T10:51:13;19.80;99.90
16578;DHT22;8401;52.528;13.340;2023-07-20T10:53:41;19.90;99.90
16578;DHT22;8401;52.528;13.340;2023-07-20T10:56:14;20.10;99.90
16578;DHT22;8401;52.528;13.340;2023-07-20T10:58:40;20.00;99.90
16578;DHT22;8401;52.528;13.340;2023-07-20T11:01:08;20.10;99.90
16578;DHT22;8401;52.528;13.340;2023-07-20T11:03:36;20.20;99.90
16578;DHT22;8401;52.528;13.340;2023-07-20T11:09:13;20.60;99.90
16578;DHT22;8401;52.528;13.340;2023-07-20T11:11:48;20.90;99.90
16578;DHT22;8401;52.528;13.340;2023-07-20T11:14:24;21.10;99.90
16578;DHT22;8401;52.528;13.340;2023-07-20T11:16:51;20.80;99.90
16578;DHT22;8401;52.528;13.340;2023-07-20T11:21:56;20.30;99.90
16578;DHT22;8401;52.528;13.340;2023-07-20T11:24:22;20.40;99.90
16578;DHT22;8401;52.528;13.340;2023-07-20T11:26:53;21.20;99.90
16578;DHT22;8401;52.528;13.340;2023-07-20T11:29:21;21.70;99.90
16578;DHT22;8401;52.528;13.340;2023-07-20T11:31:49;22.70;99.90
16578;DHT22;8401;52.528;13.340;2023-07-20T11:34:19;23.00;99.90
16578;DHT22;8401;52.528;13.340;2023-07-20T11:36:47;23.90;99.90
16578;DHT22;8401;52.528;13.340;2023-07-20T11:39:14;23.90;99.90
16578;DHT22;8401;52.528;13.340;2023-07-20T11:41:51;25.20;99.90
16578;DHT22;8401;52.528;13.340;2023-07-20T11:44:21;25.30;99.90
16578;DHT22;8401;52.528;13.340;2023-07-20T11:47:07;25.40;99.90
16578;DHT22;8401;52.528;13.340;2023-07-20T11:49:42;25.20;99.90
16578;DHT22;8401;52.528;13.340;2023-07-20T11:52:13;25.20;99.90
16578;DHT22;8401;52.528;13.340;2023-07-20T11:54:41;24.50;99.90
16578;DHT22;8401;52.528;13.340;2023-07-20T11:57:07;23.60;99.90
16578;DHT22;8401;52.528;13.340;2023-07-20T11:59:53;22.90;99.90
16578;DHT22;8401;52.528;13.340;2023-07-20T12:02:21;21.80;99.90
16578;DHT22;8401;52.528;13.340;2023-07-20T12:04:47;21.40;99.90
16578;DHT22;8401;52.528;13.340;2023-07-20T12:07:13;21.00;99.90
16578;DHT22;8401;52.528;13.340;2023-07-20T12:09:39;20.80;99.90
16578;DHT22;8401;52.528;13.340;2023-07-20T12:12:13;21.10;99.90
16578;DHT22;8401;52.528;13.340;2023-07-20T12:14:39;21.00;99.90
16578;DHT22;8401;52.528;13.340;2023-07-20T12:17:08;20.80;99.90
16578;DHT22;8401;52.528;13.340;2023-07-20T12:19:38;20.70;99.90
16578;DHT22;8401;52.528;13.340;2023-07-20T12:22:06;20.70;99.90
16578;DHT22;8401;52.528;13.340;2023-07-20T12:24:31;21.10;99.90
16578;DHT22;8401;52.528;13.340;2023-07-20T12:26:58;21.30;99.90
16578;DHT22;8401;52.528;13.340;2023-07-20T12:29:24;21.00;99.90
16578;DHT22;8401;52.528;13.340;2023-07-20T12:31:49;21.00;99.90
16578;DHT22;8401;52.528;13.340;2023-07-20T12:34:15;20.90;99.90
16578;DHT22;8401;52.528;13.340;2023-07-20T12:36:40;21.10;99.90
16578;DHT22;8401;52.528;13.340;2023-07-20T12:39:06;20.60;99.90
16578;DHT22;8401;52.528;13.340;2023-07-20T12:41:32;20.60;99.90
16578;DHT22;8401;52.528;13.340;2023-07-20T12:43:57;20.90;99.90
16578;DHT22;8401;52.528;13.340;2023-07-20T12:46:24;21.30;99.90
16578;DHT22;8401;52.528;13.340;2023-07-20T12:48:50;21.20;99.90
16578;DHT22;8401;52.528;13.340;2023-07-20T12:51:15;21.30;99.90
16578;DHT22;8401;52.528;13.340;2023-07-20T12:53:41;21.40;99.90
16578;DHT22;8401;52.528;13.340;2023-07-20T12:56:06;21.50;99.90
16578;DHT22;8401;52.528;13.340;2023-07-20T12:58:32;21.60;99.90
16578;DHT22;8401;52.528;13.340;2023-07-20T13:00:58;22.00;99.90
16578;DHT22;8401;52.528;13.340;2023-07-20T13:03:23;22.30;99.90
16578;DHT22;8401;52.528;13.340;2023-07-20T13:05:49;22.40;99.90
16578;DHT22;8401;52.528;13.340;2023-07-20T13:08:15;22.70;99.90
16578;DHT22;8401;52.528;13.340;2023-07-20T13:10:42;22.80;99.90
16578;DHT22;8401;52.528;13.340;2023-07-20T13:13:08;22.50;99.90
16578;DHT22;8401;52.528;13.340;2023-07-20T13:15:43;22.50;99.90
16578;DHT22;8401;52.528;13.340;2023-07-20T13:18:08;22.50;99.50
16578;DHT22;8401;52.528;13.340;2023-07-20T13:20:34;22.60;99.60
16578;DHT22;8401;52.528;13.340;2023-07-20T13:23:00;23.00;98.90
16578;DHT22;8401;52.528;13.340;2023-07-20T13:25:25;23.00;98.40
16578;DHT22;8401;52.528;13.340;2023-07-20T13:27:51;23.50;97.50
16578;DHT22;8401;52.528;13.340;2023-07-20T13:30:17;23.30;97.10
16578;DHT22;8401;52.528;13.340;2023-07-20T13:32:43;23.20;96.80
16578;DHT22;8401;52.528;13.340;2023-07-20T13:35:10;23.50;97.00
16578;DHT22;8401;52.528;13.340;2023-07-20T13:37:36;23.60;96.70
16578;DHT22;8401;52.528;13.340;2023-07-20T13:40:01;23.30;96.70
16578;DHT22;8401;52.528;13.340;2023-07-20T13:42:30;23.10;96.90
16578;DHT22;8401;52.528;13.340;2023-07-20T13:44:55;23.00;97.50
16578;DHT22;8401;52.528;13.340;2023-07-20T13:47:21;23.20;97.00
16578;DHT22;8401;52.528;13.340;2023-07-20T13:49:46;22.80;97.10
16578;DHT22;8401;52.528;13.340;2023-07-20T13:52:12;22.90;97.60
16578;DHT22;8401;52.528;13.340;2023-07-20T13:54:38;23.20;97.20
16578;DHT22;8401;52.528;13.340;2023-07-20T13:57:03;22.80;97.30
16578;DHT22;8401;52.528;13.340;2023-07-20T13:59:29;23.00;97.20
16578;DHT22;8401;52.528;13.340;2023-07-20T14:01:55;23.00;97.70
16578;DHT22;8401;52.528;13.340;2023-07-20T14:04:20;23.20;97.40
16578;DHT22;8401;52.528;13.340;2023-07-20T14:06:46;23.30;97.50
16578;DHT22;8401;52.528;13.340;2023-07-20T14:09:13;23.50;97.30
16578;DHT22;8401;52.528;13.340;2023-07-20T14:11:38;23.50;96.80
16578;DHT22;8401;52.528;13.340;2023-07-20T14:14:04;23.60;96.10
16578;DHT22;8401;52.528;13.340;2023-07-20T14:16:30;23.60;95.70
16578;DHT22;8401;52.528;13.340;2023-07-20T14:18:57;23.80;95.20
16578;DHT22;8401;52.528;13.340;2023-07-20T14:21:23;23.70;94.00
16578;DHT22;8401;52.528;13.340;2023-07-20T14:23:50;23.30;94.00
16578;DHT22;8401;52.528;13.340;2023-07-20T14:26:16;23.70;94.10
16578;DHT22;8401;52.528;13.340;2023-07-20T14:28:42;24.20;94.10
16578;DHT22;8401;52.528;13.340;2023-07-20T14:31:07;24.40;94.10
16578;DHT22;8401;52.528;13.340;2023-07-20T14:33:33;24.20;94.00
16578;DHT22;8401;52.528;13.340;2023-07-20T14:35:59;24.10;93.30
16578;DHT22;8401;52.528;13.340;2023-07-20T14:38:33;24.20;93.00
16578;DHT22;8401;52.528;13.340;2023-07-20T14:40:59;24.30;92.90
16578;DHT22;8401;52.528;13.340;2023-07-20T14:43:25;24.40;92.70
16578;DHT22;8401;52.528;13.340;2023-07-20T14:45:50;24.50;92.70
16578;DHT22;8401;52.528;13.340;2023-07-20T14:48:16;24.60;92.60
16578;DHT22;8401;52.528;13.340;2023-07-20T14:50:42;24.50;92.70
16578;DHT22;8401;52.528;13.340;2023-07-20T14:53:12;24.60;92.30
16578;DHT22;8401;52.528;13.340;2023-07-20T14:55:38;24.10;91.90
16578;DHT22;8401;52.528;13.340;2023-07-20T14:58:04;23.90;92.40
16578;DHT22;8401;52.528;13.340;2023-07-20T15:00:29;24.10;92.30
16578;DHT22;8401;52.528;13.340;2023-07-20T15:02:56;24.10;92.40
16578;DHT22;8401;52.528;13.340;2023-07-20T15:05:22;24.20;92.40
16578;DHT22;8401;52.528;13.340;2023-07-20T15:07:49;23.80;92.80
16578;DHT22;8401;52.528;13.340;2023-07-20T15:10:15;23.70;92.90
16578;DHT22;8401;52.528;13.340;2023-07-20T15:12:41;24.10;92.80
16578;DHT22;8401;52.528;13.340;2023-07-20T15:15:12;24.30;92.60
16578;DHT22;8401;52.528;13.340;2023-07-20T15:17:41;23.90;92.20
16578;DHT22;8401;52.528;13.340;2023-07-20T15:20:10;23.70;92.70
16578;DHT22;8401;52.528;13.340;2023-07-20T15:22:36;23.90;92.50
16578;DHT22;8401;52.528;13.340;2023-07-20T15:25:03;23.60;93.10
16578;DHT22;8401;52.528;13.340;2023-07-20T15:27:29;23.70;92.70
16578;DHT22;8401;52.528;13.340;2023-07-20T15:29:55;23.30;92.50
16578;DHT22;8401;52.528;13.340;2023-07-20T15:32:21;23.30;92.70
16578;DHT22;8401;52.528;13.340;2023-07-20T15:34:47;23.30;92.50
16578;DHT22;8401;52.528;13.340;2023-07-20T15:37:13;23.30;92.00
16578;DHT22;8401;52.528;13.340;2023-07-20T15:39:39;23.50;91.60
16578;DHT22;8401;52.528;13.340;2023-07-20T15:42:05;23.20;91.70
16578;DHT22;8401;52.528;13.340;2023-07-20T15:44:31;23.50;92.10
16578;DHT22;8401;52.528;13.340;2023-07-20T15:46:57;23.30;92.40
16578;DHT22;8401;52.528;13.340;2023-07-20T15:49:23;23.30;92.70
16578;DHT22;8401;52.528;13.340;2023-07-20T15:51:50;23.10;93.40